Time;durP1;ratioP1;P1;durP2;ratioP2;P2;SDS_P1;SDS_P2;PMS_P1;PMS_P2;Temp;Humidity;BMP_temperature;BMP_pressure;BME280_temperature;BME280_humidity;BME280_pressure;Samples;Min_cycle;Max_cycle;Signal;HPM_P1;HPM_P2
2023/09/18 00:01:39;;;;;;;9.07;6.57;;;;;;;-144.73;100.00;54446.69;5037673;28;20029;-71
2023/09/18 00:04:05;;;;;;;10.32;6.00;;;;;;;-144.73;100.00;54465.16;5035800;28;20491;-71
2023/09/18 00:06:31;;;;;;;14.25;6.38;;;;;;;-144.73;100.00;54372.81;5035708;28;20032;-71
2023/09/18 00:08:56;;;;;;;6.80;5.90;;;;;;;-144.73;100.00;54407.69;5034546;28;20018;-71
2023/09/18 00:11:22;;;;;;;9.48;5.43;;;;;;;-144.73;100.00;54420.00;5039801;28;20052;-71
2023/09/18 00:13:47;;;;;;;8.55;6.90;;;;;;;-144.73;100.00;54378.97;5033891;28;20018;-71
2023/09/18 00:16:12;;;;;;;9.85;6.22;;;;;;;-144.73;100.00;54407.69;5029927;28;20113;-71
2023/09/18 00:18:38;;;;;;;8.07;5.85;;;;;;;-144.73;100.00;54430.28;5040339;28;20033;-71
2023/09/18 00:21:04;;;;;;;7.32;5.95;;;;;;;-144.73;100.00;54448.75;5033870;28;20026;-71
2023/09/18 00:23:29;;;;;;;9.18;5.93;;;;;;;-144.73;100.00;54424.13;5038002;28;20464;-71
2023/09/18 00:25:55;;;;;;;8.02;6.38;;;;;;;-144.73;100.00;54420.00;5043653;28;20028;-71
2023/09/18 00:28:20;;;;;;;7.18;5.95;;;;;;;-144.73;100.00;54391.28;5045785;28;20009;-71
2023/09/18 00:30:50;;;;;;;6.50;5.70;;;;;;;-144.73;100.00;54424.13;5038769;28;20029;-71
2023/09/18 00:33:16;;;;;;;7.65;5.82;;;;;;;-144.73;100.00;54448.75;5030509;28;20029;-71
2023/09/18 00:35:45;;;;;;;9.73;6.22;;;;;;;-144.73;100.00;54387.19;5039773;28;20025;-71
2023/09/18 00:38:11;;;;;;;8.63;6.10;;;;;;;-144.73;100.00;54436.44;5037350;28;20088;-71
2023/09/18 00:40:36;;;;;;;10.35;5.55;;;;;;;-144.73;100.00;54354.34;5041120;28;20028;-71
2023/09/18 00:43:02;;;;;;;10.55;6.20;;;;;;;-144.73;100.00;54407.69;5035721;28;20029;-71
2023/09/18 00:45:28;;;;;;;12.95;6.72;;;;;;;-144.73;100.00;54374.84;5039844;28;20080;-71
2023/09/18 00:47:54;;;;;;;7.63;5.93;;;;;;;-144.73;100.00;54378.97;5039834;28;20016;-71
2023/09/18 00:50:21;;;;;;;10.95;6.72;;;;;;;-144.73;100.00;54424.13;5037670;28;20113;-71
2023/09/18 00:52:47;;;;;;;8.55;6.07;;;;;;;-144.73;100.00;54415.91;5043591;28;20013;-71
2023/09/18 00:55:13;;;;;;;8.05;5.75;;;;;;;-144.73;100.00;54407.69;5033238;28;20033;-71
2023/09/18 00:57:39;;;;;;;13.02;6.35;;;;;;;-144.73;100.00;54420.00;5039234;28;20025;-71
2023/09/18 01:00:06;;;;;;;8.50;5.95;;;;;;;-144.73;100.00;54444.66;5034417;28;20045;-71
2023/09/18 01:02:31;;;;;;;10.55;6.55;;;;;;;-144.73;100.00;54432.31;5029939;28;20041;-71
2023/09/18 01:04:57;;;;;;;7.78;6.20;;;;;;;-144.73;100.00;54430.28;5037281;28;20025;-71
2023/09/18 01:07:23;;;;;;;7.88;5.85;;;;;;;-144.73;100.00;54440.53;5043878;28;20036;-71
2023/09/18 01:09:49;;;;;;;11.43;7.05;;;;;;;-144.73;100.00;54426.16;5045404;28;20020;-71
2023/09/18 01:12:23;;;;;;;11.30;6.28;;;;;;;-144.73;100.00;54444.66;5042059;28;20017;-71
2023/09/18 01:15:11;;;;;;;12.40;5.80;;;;;;;-144.73;100.00;54415.91;5033956;28;20045;-71
2023/09/18 01:17:40;;;;;;;8.77;6.25;;;;;;;-144.73;100.00;54428.22;5036994;28;20021;-71
2023/09/18 01:20:09;;;;;;;11.13;6.55;;;;;;;-144.73;100.00;54485.69;5037795;28;20091;-71
2023/09/18 01:22:34;;;;;;;16.33;7.15;;;;;;;-144.73;100.00;54444.66;5034313;28;20025;-71
2023/09/18 01:24:59;;;;;;;6.93;5.60;;;;;;;-144.73;100.00;54393.34;5033942;28;20026;-71
2023/09/18 01:27:25;;;;;;;10.15;6.13;;;;;;;-144.73;100.00;54407.69;5040253;28;20012;-71
2023/09/18 01:29:50;;;;;;;8.88;5.93;;;;;;;-144.73;100.00;54411.81;5035984;28;20097;-71
2023/09/18 01:32:16;;;;;;;8.68;5.95;;;;;;;-144.73;100.00;54391.28;5030300;28;20017;-70
2023/09/18 01:34:47;;;;;;;7.28;5.88;;;;;;;-144.73;100.00;54428.22;5039415;28;20021;-71
2023/09/18 01:37:16;;;;;;;8.27;6.35;;;;;;;-144.73;100.00;54434.38;5034419;28;20017;-71
2023/09/18 01:39:42;;;;;;;7.78;5.80;;;;;;;-144.73;100.00;54422.06;5034253;28;20025;-71
2023/09/18 01:42:11;;;;;;;8.32;6.28;;;;;;;-144.73;100.00;54422.06;5037478;28;20090;-71
2023/09/18 01:44:38;;;;;;;8.07;6.35;;;;;;;-144.73;100.00;54411.81;5037776;28;20012;-70
2023/09/18 01:47:05;;;;;;;8.57;6.45;;;;;;;-144.73;100.00;54420.00;5043854;28;20025;-71
2023/09/18 01:49:39;;;;;;;9.85;6.63;;;;;;;-144.73;100.00;54415.91;5030048;28;20084;-71
2023/09/18 01:52:06;;;;;;;13.13;7.05;;;;;;;-144.73;100.00;54436.44;5036833;28;20032;-71
2023/09/18 01:54:32;;;;;;;9.82;6.70;;;;;;;-144.73;100.00;54397.44;5037330;28;20494;-71
2023/09/18 01:56:58;;;;;;;12.93;6.70;;;;;;;-144.73;100.00;54456.97;5030673;28;20045;-71
2023/09/18 01:59:24;;;;;;;8.32;6.53;;;;;;;-144.73;100.00;54440.53;5048773;28;20029;-70
2023/09/18 02:01:50;;;;;;;11.55;7.03;;;;;;;-144.73;100.00;54415.91;5038908;28;20056;-71
2023/09/18 02:04:17;;;;;;;11.02;6.78;;;;;;;-144.73;100.00;54411.81;5031394;28;20032;-71
2023/09/18 02:06:42;;;;;;;10.35;7.15;;;;;;;-144.73;100.00;54436.44;5037694;28;20026;-70
2023/09/18 02:09:11;;;;;;;11.75;6.72;;;;;;;-144.73;100.00;54440.53;5032293;28;20032;-71
2023/09/18 02:11:38;;;;;;;9.73;6.15;;;;;;;-144.73;100.00;54420.00;5042121;28;20040;-71
2023/09/18 02:14:05;;;;;;;10.90;7.05;;;;;;;-144.73;100.00;54426.16;5033002;28;20025;-71
2023/09/18 02:16:36;;;;;;;8.65;6.50;;;;;;;-144.73;100.00;54440.53;5038455;28;20028;-71
2023/09/18 02:19:03;;;;;;;11.70;6.63;;;;;;;-144.73;100.00;54444.66;5036448;28;20079;-71
2023/09/18 02:21:30;;;;;;;8.45;7.00;;;;;;;-144.73;100.00;54420.00;5042524;28;20133;-71
2023/09/18 02:23:55;;;;;;;16.45;7.15;;;;;;;-144.73;100.00;54428.22;5040965;28;20100;-71
2023/09/18 02:26:23;;;;;;;10.27;6.80;;;;;;;-144.73;100.00;54448.75;5038234;28;20093;-71
2023/09/18 02:28:48;;;;;;;9.82;6.93;;;;;;;-144.73;100.00;54428.22;5038151;28;20083;-71
2023/09/18 02:31:14;;;;;;;9.07;6.63;;;;;;;-144.73;100.00;54440.53;5039730;28;20038;-71
2023/09/18 02:33:40;;;;;;;7.88;6.50;;;;;;;-144.73;100.00;54459.00;5038257;28;20040;-72
2023/09/18 02:36:05;;;;;;;7.60;6.68;;;;;;;-144.73;100.00;54440.53;5040596;28;20033;-71
2023/09/18 02:38:32;;;;;;;13.50;7.13;;;;;;;-144.73;100.00;54452.84;5040641;28;20029;-71
2023/09/18 02:40:58;;;;;;;9.25;7.15;;;;;;;-144.73;100.00;54432.31;5030520;28;20089;-71
2023/09/18 02:43:23;;;;;;;9.70;7.15;;;;;;;-144.73;100.00;54440.53;5044182;28;20104;-71
2023/09/18 02:45:50;;;;;;;9.80;6.88;;;;;;;-144.73;100.00;54428.22;5034915;28;20029;-71
2023/09/18 02:48:15;;;;;;;8.27;7.15;;;;;;;-144.73;100.00;54411.81;5030074;28;20021;-71
2023/09/18 02:50:41;;;;;;;12.38;7.05;;;;;;;-144.73;100.00;54407.69;5036892;28;20121;-71
2023/09/18 02:53:15;;;;;;;12.65;7.07;;;;;;;-144.73;100.00;54434.38;5029184;28;20017;-71
2023/09/18 02:55:41;;;;;;;8.05;6.30;;;;;;;-144.73;100.00;54436.44;5025505;28;20052;-71
2023/09/18 02:58:06;;;;;;;9.88;6.82;;;;;;;-144.73;100.00;54378.97;5035867;28;20380;-71
2023/09/18 03:00:32;;;;;;;13.18;7.28;;;;;;;-144.73;100.00;54411.81;5028893;28;20127;-70
2023/09/18 03:02:57;;;;;;;9.32;7.47;;;;;;;-144.73;100.00;54430.28;5028507;28;20037;-71
2023/09/18 03:05:22;;;;;;;10.82;6.43;;;;;;;-144.73;100.00;54407.69;5032896;28;20499;-71
2023/09/18 03:07:48;;;;;;;11.10;7.25;;;;;;;-144.73;100.00;54454.91;5038464;28;20033;-71
2023/09/18 03:10:15;;;;;;;11.20;6.28;;;;;;;-144.73;100.00;54452.84;5034877;28;20037;-71
2023/09/18 03:12:41;;;;;;;10.65;7.90;;;;;;;-144.73;100.00;54477.47;5028605;28;20123;-71
2023/09/18 03:15:06;;;;;;;8.30;6.38;;;;;;;-144.73;100.00;54395.38;5028669;28;20108;-71
2023/09/18 03:17:32;;;;;;;9.57;6.68;;;;;;;-144.73;100.00;54440.53;5030682;28;20163;-71
2023/09/18 03:19:57;;;;;;;11.82;7.28;;;;;;;-144.73;100.00;54454.91;5041518;28;20025;-71
2023/09/18 03:22:22;;;;;;;9.07;6.90;;;;;;;-144.73;100.00;54448.75;5038029;28;20412;-71
2023/09/18 03:24:48;;;;;;;11.75;7.60;;;;;;;-144.73;100.00;54428.22;5042160;28;20455;-71
2023/09/18 03:27:13;;;;;;;8.65;6.95;;;;;;;-144.73;100.00;54420.00;5030222;28;20032;-71
2023/09/18 03:29:38;;;;;;;11.48;7.88;;;;;;;-144.73;100.00;54440.53;5039637;28;20021;-71
2023/09/18 03:32:04;;;;;;;13.18;7.50;;;;;;;-144.73;100.00;54420.00;5041192;28;20035;-71
2023/09/18 03:34:29;;;;;;;9.32;6.68;;;;;;;-144.73;100.00;54473.38;5027594;28;20037;-71
2023/09/18 03:36:55;;;;;;;9.23;6.97;;;;;;;-144.73;100.00;54489.81;5034874;28;20037;-71
2023/09/18 03:39:20;;;;;;;9.10;7.03;;;;;;;-144.73;100.00;54452.84;5035783;28;20057;-71
2023/09/18 03:41:46;;;;;;;8.20;7.30;;;;;;;-144.73;100.00;54422.06;5032969;28;20459;-71
2023/09/18 03:44:11;;;;;;;11.32;7.45;;;;;;;-144.73;100.00;54436.44;5028949;28;20036;-71
2023/09/18 03:46:37;;;;;;;9.18;6.65;;;;;;;-144.73;100.00;54448.75;5034365;28;20428;-70
2023/09/18 03:49:02;;;;;;;11.25;7.28;;;;;;;-144.73;100.00;54407.69;5029680;28;20026;-71
2023/09/18 03:51:29;;;;;;;10.93;7.57;;;;;;;-144.73;100.00;54385.13;5029512;28;20076;-71
2023/09/18 03:53:55;;;;;;;12.00;8.38;;;;;;;-144.73;100.00;54415.91;5032734;28;20014;-70
2023/09/18 03:56:21;;;;;;;8.93;7.22;;;;;;;-144.73;100.00;54415.91;5031935;28;20049;-71
2023/09/18 03:58:49;;;;;;;11.18;7.85;;;;;;;-144.73;100.00;54432.31;5034617;28;20385;-71
2023/09/18 04:01:15;;;;;;;10.48;7.18;;;;;;;-144.73;100.00;54436.44;5033634;28;20479;-71
2023/09/18 04:03:41;;;;;;;8.43;7.22;;;;;;;-144.73;100.00;54475.44;5036449;28;20495;-71
2023/09/18 04:06:06;;;;;;;13.40;7.47;;;;;;;-144.73;100.00;54469.28;5033871;28;20389;-71
2023/09/18 04:08:31;;;;;;;13.18;7.70;;;;;;;-144.73;100.00;54432.31;5032236;28;20470;-71
2023/09/18 04:10:58;;;;;;;10.98;8.18;;;;;;;-144.73;100.00;54440.53;5040294;28;20033;-71
2023/09/18 04:13:23;;;;;;;11.98;8.65;;;;;;;-144.73;100.00;54452.84;5035460;28;20048;-71
2023/09/18 04:15:49;;;;;;;10.52;7.78;;;;;;;-144.73;100.00;54467.22;5028196;28;20029;-71
2023/09/18 04:18:14;;;;;;;10.57;7.70;;;;;;;-144.73;100.00;54452.84;5035682;28;20108;-71
2023/09/18 04:20:39;;;;;;;13.52;7.13;;;;;;;-144.73;100.00;54415.91;5035709;28;20067;-71
2023/09/18 04:23:22;;;;;;;10.15;7.90;;;;;;;-144.73;100.00;54440.53;5040699;28;20113;-71
2023/09/18 04:25:48;;;;;;;12.05;7.82;;;;;;;-144.73;100.00;54465.16;5031455;28;20546;-71
2023/09/18 04:28:15;;;;;;;14.38;8.00;;;;;;;-144.73;100.00;54452.84;5046761;28;20022;-71
2023/09/18 04:30:41;;;;;;;14.70;7.95;;;;;;;-144.73;100.00;54452.84;5037062;28;20038;-71
2023/09/18 04:33:06;;;;;;;13.73;7.47;;;;;;;-144.73;100.00;54461.06;5038050;28;20026;-71
2023/09/18 04:35:32;;;;;;;12.02;7.43;;;;;;;-144.73;100.00;54469.28;5034689;28;20065;-71
2023/09/18 04:37:58;;;;;;;11.65;8.05;;;;;;;-144.73;100.00;54461.06;5036304;28;20025;-70
2023/09/18 04:40:24;;;;;;;10.82;8.48;;;;;;;-144.73;100.00;54452.84;5037009;28;20029;-71
2023/09/18 04:42:50;;;;;;;9.15;7.03;;;;;;;-144.73;100.00;54456.97;5040878;28;20100;-71
2023/09/18 04:45:16;;;;;;;8.98;7.38;;;;;;;-144.73;100.00;54434.38;5033450;28;20046;-71
2023/09/18 04:47:41;;;;;;;10.88;7.57;;;;;;;-144.73;100.00;54465.16;5043509;28;20057;-71
2023/09/18 04:50:09;;;;;;;12.70;7.95;;;;;;;-144.73;100.00;54456.97;5037378;28;20021;-70
2023/09/18 04:52:37;;;;;;;22.90;14.82;;;;;;;-144.73;100.00;54424.13;5033616;28;20049;-71
2023/09/18 04:55:05;;;;;;;19.17;11.18;;;;;;;-144.73;100.00;54446.69;5045800;28;20040;-71
2023/09/18 04:57:31;;;;;;;12.73;8.65;;;;;;;-144.73;100.00;54440.53;5043056;28;20113;-71
2023/09/18 04:59:56;;;;;;;10.48;7.57;;;;;;;-144.73;100.00;54469.28;5036712;28;20100;-71
2023/09/18 05:02:22;;;;;;;11.00;8.25;;;;;;;-144.73;100.00;54469.28;5034748;28;20495;-71
2023/09/18 05:04:47;;;;;;;15.80;7.30;;;;;;;-144.73;100.00;54428.22;5034073;28;20034;-70
2023/09/18 05:07:13;;;;;;;13.77;7.85;;;;;;;-144.73;100.00;54440.53;5041167;28;20067;-70
2023/09/18 05:09:40;;;;;;;14.48;8.25;;;;;;;-144.73;100.00;54420.00;5042233;28;20021;-70
2023/09/18 05:12:08;;;;;;;13.32;8.13;;;;;;;-144.73;100.00;54448.75;5043634;28;20100;-70
2023/09/18 05:14:34;;;;;;;12.32;9.60;;;;;;;-144.73;100.00;54485.69;5032569;28;20025;-70
2023/09/18 05:16:59;;;;;;;11.02;8.93;;;;;;;-144.73;100.00;54452.84;5033290;28;20033;-70
2023/09/18 05:19:25;;;;;;;13.75;9.02;;;;;;;-144.73;100.00;54428.22;5039965;28;20025;-70
2023/09/18 05:21:50;;;;;;;15.98;8.40;;;;;;;-144.73;100.00;54417.97;5033527;28;20072;-70
2023/09/18 05:24:16;;;;;;;9.32;7.93;;;;;;;-144.73;100.00;54461.06;5033990;28;20032;-71
2023/09/18 05:26:41;;;;;;;20.13;13.25;;;;;;;-144.73;100.00;54481.59;5040785;28;20048;-71
2023/09/18 05:29:07;;;;;;;12.98;9.13;;;;;;;-144.73;100.00;54473.38;5041258;28;20068;-71
2023/09/18 05:31:32;;;;;;;12.13;8.90;;;;;;;-144.73;100.00;54436.44;5034248;28;20068;-71
2023/09/18 05:33:58;;;;;;;9.73;7.82;;;;;;;-144.73;100.00;54432.31;5032792;28;20019;-71
2023/09/18 05:36:24;;;;;;;13.68;7.45;;;;;;;-144.73;100.00;54440.53;5033386;28;20116;-71
2023/09/18 05:38:49;;;;;;;14.30;8.15;;;;;;;-144.73;100.00;54444.66;5040236;28;20460;-71
2023/09/18 05:41:15;;;;;;;13.52;8.43;;;;;;;-144.73;100.00;54452.84;5039022;28;20081;-71
2023/09/18 05:43:40;;;;;;;9.95;7.63;;;;;;;-144.73;100.00;54469.28;5038951;28;20025;-71
2023/09/18 05:46:06;;;;;;;12.93;8.07;;;;;;;-144.73;100.00;54465.16;5037166;28;20477;-71
2023/09/18 05:48:31;;;;;;;11.77;7.40;;;;;;;-144.73;100.00;54428.22;5038495;28;20025;-71
2023/09/18 05:50:56;;;;;;;11.90;7.95;;;;;;;-144.73;100.00;54389.22;5031701;28;20084;-71
2023/09/18 05:53:22;;;;;;;10.15;7.47;;;;;;;-144.73;100.00;54452.84;5036029;28;20124;-72
2023/09/18 05:55:47;;;;;;;12.23;7.95;;;;;;;-144.73;100.00;54442.59;5038935;28;20495;-71
2023/09/18 05:58:13;;;;;;;15.15;8.18;;;;;;;-144.73;100.00;54424.13;5035547;28;20026;-71
2023/09/18 06:00:39;;;;;;;30.85;7.30;;;;;;;-144.73;100.00;54424.13;5037610;28;20037;-71
2023/09/18 06:03:05;;;;;;;13.75;6.95;;;;;;;-144.73;100.00;54440.53;5034829;28;20052;-71
2023/09/18 06:05:31;;;;;;;19.30;8.88;;;;;;;-144.73;100.00;54424.13;5040718;28;20040;-71
2023/09/18 06:07:57;;;;;;;11.85;7.72;;;;;;;-144.73;100.00;54448.75;5031405;28;20025;-71
2023/09/18 06:10:22;;;;;;;9.75;7.95;;;;;;;-144.73;100.00;54463.13;5040732;28;20032;-71
2023/09/18 06:12:48;;;;;;;11.80;6.93;;;;;;;-144.73;100.00;54442.59;5030038;28;20025;-71
2023/09/18 06:15:14;;;;;;;11.90;7.70;;;;;;;-144.73;100.00;54387.19;5033455;28;20033;-72
2023/09/18 06:17:41;;;;;;;16.17;7.43;;;;;;;-144.73;100.00;54440.53;5042891;28;20037;-72
2023/09/18 06:20:09;;;;;;;9.57;6.63;;;;;;;-144.73;100.00;54448.75;5036256;28;20040;-71
2023/09/18 06:22:38;;;;;;;11.13;7.38;;;;;;;-144.73;100.00;54420.00;5038754;28;20028;-72
2023/09/18 06:25:10;;;;;;;10.32;7.05;;;;;;;-144.73;100.00;54383.06;5037221;28;20036;-72
2023/09/18 06:27:36;;;;;;;12.80;7.32;;;;;;;-144.73;100.00;54440.53;5041700;28;20032;-72
2023/09/18 06:30:03;;;;;;;8.90;6.47;;;;;;;-144.73;100.00;54432.31;5033585;28;20045;-72
2023/09/18 06:32:31;;;;;;;11.55;7.03;;;;;;;-144.73;100.00;54450.81;5037973;28;20104;-71
2023/09/18 06:34:57;;;;;;;10.43;7.10;;;;;;;-144.73;100.00;54452.84;5030253;28;20077;-71
2023/09/18 06:37:23;;;;;;;16.38;6.97;;;;;;;-144.73;100.00;54448.75;5037620;28;20032;-71
2023/09/18 06:39:49;;;;;;;21.73;7.60;;;;;;;-144.73;100.00;54452.84;5035787;28;20404;-71
2023/09/18 06:42:14;;;;;;;14.52;7.10;;;;;;;-144.73;100.00;54448.75;5041635;28;20052;-71
2023/09/18 06:44:39;;;;;;;16.10;6.88;;;;;;;-144.73;100.00;54448.75;5031562;28;20480;-72
2023/09/18 06:47:05;;;;;;;10.40;6.82;;;;;;;-144.73;100.00;54389.22;5034702;28;20246;-71
2023/09/18 06:49:30;;;;;;;13.10;6.85;;;;;;;-144.73;100.00;54448.75;5031920;28;20092;-71
2023/09/18 06:51:56;;;;;;;11.48;6.82;;;;;;;-144.73;100.00;54452.84;5032081;28;20042;-71
2023/09/18 06:54:22;;;;;;;11.70;7.15;;;;;;;-144.73;100.00;54452.84;5042622;28;20155;-71
2023/09/18 06:56:47;;;;;;;12.88;7.53;;;;;;;-144.73;100.00;54444.66;5036675;28;20162;-71
2023/09/18 06:59:13;;;;;;;12.10;6.57;;;;;;;-144.73;100.00;54461.06;5033705;28;20030;-71
2023/09/18 07:01:42;;;;;;;10.60;6.80;;;;;;;-144.73;100.00;54440.53;5036431;28;20055;-71
2023/09/18 07:04:07;;;;;;;11.88;6.97;;;;;;;-144.73;100.00;54381.00;5040141;28;20021;-71
2023/09/18 07:06:33;;;;;;;14.57;7.22;;;;;;;-144.73;100.00;54430.28;5038782;28;20053;-72
2023/09/18 07:08:59;;;;;;;9.88;6.80;;;;;;;-144.73;100.00;54440.53;5034828;28;20076;-71
2023/09/18 07:11:24;;;;;;;11.45;7.20;;;;;;;-144.73;100.00;54469.28;5037092;28;20041;-71
2023/09/18 07:13:50;;;;;;;11.20;6.75;;;;;;;-144.73;100.00;54436.44;5034740;28;20028;-71
2023/09/18 07:16:15;;;;;;;13.65;6.47;;;;;;;-144.73;100.00;54428.22;5037073;28;20041;-71
2023/09/18 07:18:41;;;;;;;12.70;7.10;;;;;;;-144.73;100.00;54436.44;5039001;28;20029;-71
2023/09/18 07:21:07;;;;;;;8.73;6.10;;;;;;;-144.73;100.00;54461.06;5037175;28;20115;-70
2023/09/18 07:23:36;;;;;;;12.20;5.90;;;;;;;-144.73;100.00;54424.13;5040636;28;20061;-71
2023/09/18 07:26:01;;;;;;;8.93;6.47;;;;;;;-144.73;100.00;54407.69;5033532;28;20045;-71
2023/09/18 07:28:27;;;;;;;14.18;6.57;;;;;;;-144.73;100.00;54424.13;5038851;28;20025;-71
2023/09/18 07:30:52;;;;;;;7.82;6.05;;;;;;;-144.73;100.00;54407.69;5040275;28;20037;-71
2023/09/18 07:33:20;;;;;;;10.45;5.90;;;;;;;-144.73;100.00;54407.69;5032319;28;20026;-71
2023/09/18 07:35:51;;;;;;;9.25;5.65;;;;;;;-144.73;100.00;54415.91;5038541;28;20036;-71
2023/09/18 07:38:19;;;;;;;10.02;7.10;;;;;;;-144.73;100.00;54444.66;5040313;28;20471;-71
2023/09/18 07:40:47;;;;;;;21.42;12.18;;;;;;;-144.73;100.00;54456.97;5031729;28;20034;-71
2023/09/18 07:43:12;;;;;;;12.52;7.22;;;;;;;-144.73;100.00;54426.16;5037795;28;20214;-71
2023/09/18 07:45:39;;;;;;;12.55;6.80;;;;;;;-144.73;100.00;54432.31;5035350;28;20115;-71
2023/09/18 07:48:06;;;;;;;15.38;6.55;;;;;;;-144.73;100.00;54411.81;5036635;28;20033;-71
2023/09/18 07:50:33;;;;;;;8.30;5.72;;;;;;;-144.73;100.00;54452.84;5033101;28;20434;-71
2023/09/18 07:52:59;;;;;;;6.85;5.85;;;;;;;-144.73;100.00;54422.06;5042724;28;20017;-71
2023/09/18 07:55:25;;;;;;;14.52;6.40;;;;;;;-144.73;100.00;54407.69;5032789;28;20076;-71
2023/09/18 07:57:51;;;;;;;10.93;5.00;;;;;;;-144.73;100.00;54407.69;5031058;28;20502;-71
2023/09/18 08:00:18;;;;;;;8.63;6.13;;;;;;;-144.73;100.00;54424.13;5035984;28;20160;-71
2023/09/18 08:02:44;;;;;;;12.40;5.82;;;;;;;-144.73;100.00;54436.44;5032096;28;20025;-72
2023/09/18 08:05:09;;;;;;;9.63;5.35;;;;;;;-144.73;100.00;54397.44;5031333;28;20052;-71
2023/09/18 08:07:37;;;;;;;12.02;5.55;;;;;;;-144.73;100.00;54420.00;5033072;28;20040;-71
2023/09/18 08:10:06;;;;;;;11.93;5.60;;;;;;;-144.73;100.00;54395.38;5030514;28;20040;-71
2023/09/18 08:12:32;;;;;;;18.67;6.22;;;;;;;-144.73;100.00;54395.38;5038017;28;20017;-71
2023/09/18 08:14:58;;;;;;;10.95;5.78;;;;;;;-144.73;100.00;54378.97;5036015;28;20061;-71
2023/09/18 08:17:24;;;;;;;11.40;6.25;;;;;;;-144.73;100.00;54385.13;5036394;28;20094;-71
2023/09/18 08:19:52;;;;;;;6.80;5.75;;;;;;;-144.73;100.00;54432.31;5033459;28;20025;-71
2023/09/18 08:22:18;;;;;;;8.80;5.25;;;;;;;-144.73;100.00;54395.38;5035227;28;20031;-71
2023/09/18 08:24:45;;;;;;;7.70;5.55;;;;;;;-144.73;100.00;54456.97;5040450;28;20052;-71
2023/09/18 08:27:13;;;;;;;7.22;4.57;;;;;;;-144.73;100.00;54391.28;5036771;28;20017;-71
2023/09/18 08:29:38;;;;;;;6.78;5.32;;;;;;;-144.73;100.00;54436.44;5032664;28;20025;-71
2023/09/18 08:32:04;;;;;;;9.38;5.05;;;;;;;-144.73;100.00;54415.91;5034249;28;20029;-71
2023/09/18 08:34:29;;;;;;;8.45;5.05;;;;;;;-144.73;100.00;54393.34;5037111;28;20033;-71
2023/09/18 08:36:54;;;;;;;12.25;5.10;;;;;;;-144.73;100.00;54387.19;5038973;28;20060;-71
2023/09/18 08:39:20;;;;;;;12.30;5.35;;;;;;;-144.73;100.00;54411.81;5035730;28;20472;-71
2023/09/18 08:41:50;;;;;;;8.88;5.07;;;;;;;-144.73;100.00;54391.28;5030117;28;20038;-71
2023/09/18 08:44:17;;;;;;;9.20;5.07;;;;;;;-144.73;100.00;54428.22;5041183;28;20043;-71
2023/09/18 08:46:43;;;;;;;8.18;5.35;;;;;;;-144.73;100.00;54428.22;5028282;28;20029;-72
2023/09/18 08:49:11;;;;;;;11.18;5.07;;;;;;;-144.73;100.00;54424.13;5029410;28;20021;-72
2023/09/18 08:51:38;;;;;;;13.27;5.63;;;;;;;-144.73;100.00;54440.53;5032756;28;20041;-71
2023/09/18 08:54:04;;;;;;;9.73;5.38;;;;;;;-144.73;100.00;54432.31;5038213;28;20056;-71
2023/09/18 08:56:33;;;;;;;8.30;5.75;;;;;;;-144.73;100.00;54411.81;5037929;28;20033;-71
2023/09/18 08:58:59;;;;;;;6.72;5.60;;;;;;;-144.73;100.00;54461.06;5037397;28;20040;-71
2023/09/18 09:01:25;;;;;;;17.00;5.88;;;;;;;-144.73;100.00;54428.22;5032297;28;20041;-71
2023/09/18 09:03:50;;;;;;;11.23;5.82;;;;;;;-144.73;100.00;54444.66;5027838;28;20029;-71
2023/09/18 09:06:17;;;;;;;9.27;5.72;;;;;;;-144.73;100.00;54424.13;5033866;28;20042;-70
2023/09/18 09:08:42;;;;;;;10.10;5.82;;;;;;;-144.73;100.00;54407.69;5032852;28;20057;-71
2023/09/18 09:11:07;;;;;;;13.50;5.88;;;;;;;-144.73;100.00;54436.44;5039158;28;20049;-71
2023/09/18 09:13:33;;;;;;;11.93;6.32;;;;;;;-144.73;100.00;54391.28;5032147;28;20052;-71
2023/09/18 09:15:59;;;;;;;10.75;5.78;;;;;;;-144.73;100.00;54444.66;5036835;28;20031;-71
2023/09/18 09:18:27;;;;;;;22.65;6.57;;;;;;;-144.73;100.00;54430.28;5038121;28;20017;-71
2023/09/18 09:21:04;;;;;;;10.35;5.88;;;;;;;-144.73;100.00;54420.00;5031973;28;20033;-71
2023/09/18 09:23:45;;;;;;;11.52;5.72;;;;;;;-144.73;100.00;54420.00;5031352;28;20028;-71
2023/09/18 09:26:16;;;;;;;10.77;5.97;;;;;;;-144.73;100.00;54424.13;5030758;28;20037;-71
2023/09/18 09:28:44;;;;;;;10.57;5.90;;;;;;;-144.73;100.00;54420.00;5035248;28;20021;-71
2023/09/18 09:31:10;;;;;;;7.53;5.45;;;;;;;-144.73;100.00;54434.38;5038082;28;20098;-72
2023/09/18 09:33:38;;;;;;;10.45;5.90;;;;;;;-144.73;100.00;54424.13;5037084;28;20021;-72
2023/09/18 09:36:07;;;;;;;12.30;5.30;;;;;;;-144.73;100.00;54440.53;5040701;28;20056;-72
2023/09/18 09:38:34;;;;;;;12.05;5.22;;;;;;;-144.73;100.00;54440.53;5034116;28;20422;-72
2023/09/18 09:41:02;;;;;;;12.85;5.80;;;;;;;-144.73;100.00;54391.28;5030839;28;20036;-72
2023/09/18 09:43:31;;;;;;;11.43;6.68;;;;;;;-144.73;100.00;54440.53;5035703;28;20032;-72
2023/09/18 09:45:58;;;;;;;7.45;5.28;;;;;;;-144.73;100.00;54407.69;5034452;28;20030;-72
2023/09/18 09:48:27;;;;;;;8.88;5.30;;;;;;;-144.73;100.00;54407.69;5029978;28;20041;-71
2023/09/18 09:51:20;;;;;;;10.77;5.25;;;;;;;-144.73;100.00;54430.28;5031052;28;20030;-72
2023/09/18 09:53:47;;;;;;;16.65;5.68;;;;;;;-144.73;100.00;54370.75;5027117;28;20024;-71
2023/09/18 09:56:14;;;;;;;5.90;5.03;;;;;;;-144.73;100.00;54387.19;5022315;28;20029;-72
2023/09/18 09:58:43;;;;;;;11.40;5.82;;;;;;;-144.73;100.00;54407.69;5020136;28;20044;-72
2023/09/18 10:01:17;;;;;;;6.85;5.82;;;;;;;-144.73;100.00;54378.97;5037344;28;20111;-72
2023/09/18 10:03:44;;;;;;;9.48;5.05;;;;;;;-144.73;100.00;54428.22;5024660;28;20025;-72
2023/09/18 10:06:13;;;;;;;8.20;4.85;;;;;;;-144.73;100.00;54446.69;5035827;28;20370;-71
2023/09/18 10:08:39;;;;;;;10.05;5.57;;;;;;;-144.73;100.00;54415.91;5029934;28;20040;-71
2023/09/18 10:11:12;;;;;;;10.75;5.35;;;;;;;-144.73;100.00;54395.38;5033060;28;20033;-72
2023/09/18 10:14:04;;;;;;;11.27;5.30;;;;;;;-144.73;100.00;54391.28;5037694;28;20124;-72
2023/09/18 10:16:31;;;;;;;9.52;4.80;;;;;;;-144.73;100.00;54411.81;5028204;28;20121;-72
2023/09/18 10:19:21;;;;;;;11.63;4.78;;;;;;;-144.73;100.00;54407.69;5028428;28;20095;-72
2023/09/18 10:22:05;;;;;;;11.88;5.47;;;;;;;-144.73;100.00;54407.69;5031791;28;20032;-72
2023/09/18 10:24:37;;;;;;;8.75;5.13;;;;;;;-144.73;100.00;54428.22;5028778;28;20026;-72
2023/09/18 10:27:03;;;;;;;13.90;4.63;;;;;;;-144.73;100.00;54407.69;5032676;28;20029;-72
2023/09/18 10:29:30;;;;;;;15.93;5.57;;;;;;;-144.73;100.00;54387.19;5030404;28;20025;-72
2023/09/18 10:31:56;;;;;;;8.05;5.25;;;;;;;-144.73;100.00;54391.28;5033160;28;20029;-72
2023/09/18 10:34:23;;;;;;;10.32;4.80;;;;;;;-144.73;100.00;54422.06;5035570;28;20021;-72
2023/09/18 10:36:54;;;;;;;13.07;4.97;;;;;;;-144.73;100.00;54407.69;5035286;28;20104;-72
2023/09/18 10:39:28;;;;;;;9.03;5.47;;;;;;;-144.73;100.00;54420.00;5031492;28;20039;-71
2023/09/18 10:41:58;;;;;;;8.45;4.38;;;;;;;-144.73;100.00;54391.28;5031225;28;20030;-72
2023/09/18 10:44:23;;;;;;;9.00;4.70;;;;;;;-144.73;100.00;54370.75;5038060;28;20049;-72
2023/09/18 10:46:54;;;;;;;8.98;5.50;;;;;;;-144.73;100.00;54424.13;5036119;28;20108;-72
2023/09/18 10:49:20;;;;;;;10.05;4.70;;;;;;;-144.73;100.00;54395.38;5034337;28;20025;-72
2023/09/18 10:51:46;;;;;;;11.30;6.30;;;;;;;-144.73;100.00;54381.00;5032221;28;20731;-72
2023/09/18 10:54:19;;;;;;;14.60;4.78;;;;;;;-144.73;100.00;54391.28;5030340;28;20036;-72
2023/09/18 10:56:45;;;;;;;9.80;5.03;;;;;;;-144.73;100.00;54387.19;5022835;28;20026;-72
2023/09/18 10:59:11;;;;;;;16.35;5.57;;;;;;;-144.73;100.00;54407.69;5036853;28;20056;-72
2023/09/18 11:01:37;;;;;;;19.55;5.38;;;;;;;-144.73;100.00;54381.00;5029963;28;20445;-72
2023/09/18 11:04:09;;;;;;;16.10;6.70;;;;;;;-144.73;100.00;54395.38;5026545;28;20018;-72